createdAt,value
2023-04-02T00:00:03.054Z,1.40
2023-04-02T00:04:04.655Z,1.30
2023-04-02T00:07:50.118Z,1.20
2023-04-02T00:11:53.821Z,1.80
2023-04-02T00:15:55.567Z,1.50
2023-04-02T00:19:51.841Z,1.70
2023-04-02T00:23:49.466Z,1.80
2023-04-02T00:27:49.327Z,1.60
2023-04-02T00:31:50.421Z,1.50
2023-04-02T00:35:50.129Z,1.70
2023-04-02T00:39:51.990Z,1.40
2023-04-02T00:43:50.359Z,1.80
2023-04-02T00:47:49.576Z,1.70
2023-04-02T00:51:53.557Z,1.70
2023-04-02T00:55:49.430Z,2.20
2023-04-02T00:59:55.828Z,2.00
2023-04-02T01:03:57.138Z,2.30
2023-04-02T01:12:06.956Z,2.70
2023-04-02T01:15:53.675Z,2.30
2023-04-02T01:23:59.441Z,2.60
2023-04-02T01:27:55.803Z,2.70
2023-04-02T01:31:51.304Z,2.60
2023-04-02T01:40:05.141Z,2.40
2023-04-02T01:47:50.147Z,3.10
2023-04-02T01:55:52.144Z,2.70
2023-04-02T01:59:49.232Z,2.90
2023-04-02T02:03:50.325Z,3.30
2023-04-02T02:07:50.561Z,3.90
2023-04-02T02:11:50.398Z,4.10
2023-04-02T02:19:52.984Z,3.80
2023-04-02T02:31:54.173Z,3.20
2023-04-02T02:35:53.657Z,3.60
2023-04-02T02:39:54.069Z,4.00
2023-04-02T02:43:56.315Z,3.30
2023-04-02T02:47:51.120Z,3.40
2023-04-02T02:51:56.289Z,3.70
2023-04-02T02:55:53.462Z,4.00
2023-04-02T03:03:52.948Z,4.20
2023-04-02T03:07:52.470Z,3.80
2023-04-02T03:19:55.013Z,3.60
2023-04-02T03:23:55.517Z,3.40
2023-04-02T03:27:52.780Z,3.80
2023-04-02T03:31:55.475Z,4.00
2023-04-02T03:35:56.996Z,4.00
2023-04-02T03:39:54.643Z,3.60
2023-04-02T03:43:54.044Z,3.90
2023-04-02T03:47:54.997Z,3.40
2023-04-02T03:51:54.402Z,3.40
2023-04-02T03:55:49.395Z,3.50
2023-04-02T03:59:57.329Z,3.50
2023-04-02T04:03:52.217Z,3.60
2023-04-02T04:11:52.108Z,3.50
2023-04-02T04:15:53.096Z,3.40
2023-04-02T04:19:56.970Z,3.70
2023-04-02T04:23:50.513Z,4.00
2023-04-02T04:28:06.712Z,3.90
2023-04-02T04:31:54.180Z,3.70
2023-04-02T04:35:54.085Z,3.60
2023-04-02T04:43:54.570Z,3.70
2023-04-02T04:47:55.684Z,3.30
2023-04-02T04:51:52.606Z,3.50
2023-04-02T04:55:52.395Z,3.70
2023-04-02T04:59:55.518Z,4.00
2023-04-02T05:03:53.817Z,2.90
2023-04-02T05:07:52.211Z,3.10
2023-04-02T05:12:00.408Z,3.30
2023-04-02T05:15:54.417Z,2.90
2023-04-02T05:19:55.848Z,3.00
2023-04-02T05:23:52.944Z,3.30
2023-04-02T05:27:55.150Z,3.30
2023-04-02T05:31:58.358Z,3.10
2023-04-02T05:35:55.422Z,3.20
2023-04-02T05:39:53.522Z,3.00
2023-04-02T05:43:57.979Z,3.20
2023-04-02T05:47:52.976Z,2.60
2023-04-02T05:51:54.426Z,2.80
2023-04-02T05:55:54.034Z,2.70
2023-04-02T05:59:54.348Z,3.00
2023-04-02T06:03:56.505Z,2.70
2023-04-02T06:07:55.545Z,2.50
2023-04-02T06:15:49.824Z,2.80
2023-04-02T06:23:54.102Z,2.90
2023-04-02T06:27:52.932Z,2.60
2023-04-02T06:31:52.949Z,3.10
2023-04-02T06:35:51.329Z,2.50
2023-04-02T06:39:49.817Z,2.80
2023-04-02T06:43:54.010Z,3.00
2023-04-02T06:47:51.680Z,3.00
2023-04-02T06:55:54.331Z,2.50
2023-04-02T07:03:50.705Z,2.60
2023-04-02T07:07:49.816Z,2.80
2023-04-02T07:15:52.801Z,2.40
2023-04-02T07:19:49.982Z,2.80
2023-04-02T07:23:49.930Z,3.00
2023-04-02T07:27:51.115Z,2.40
2023-04-02T07:31:51.769Z,3.10
2023-04-02T07:39:50.000Z,2.90
2023-04-02T07:43:49.907Z,2.70
2023-04-02T07:47:50.076Z,2.60
2023-04-02T07:51:50.698Z,2.70
2023-04-02T07:55:51.182Z,2.70
2023-04-02T07:59:50.547Z,2.40
2023-04-02T08:03:52.971Z,2.80
2023-04-02T08:07:53.759Z,2.90
2023-04-02T08:11:50.239Z,2.60
2023-04-02T08:15:49.919Z,2.70
2023-04-02T08:19:54.605Z,2.80
2023-04-02T08:23:49.939Z,3.30
2023-04-02T08:27:50.232Z,2.60
2023-04-02T08:31:50.109Z,2.90
2023-04-02T08:35:50.268Z,2.70
2023-04-02T08:39:50.089Z,2.80
2023-04-02T08:44:09.077Z,2.40
2023-04-02T08:47:54.262Z,2.40
2023-04-02T08:51:51.199Z,2.90
2023-04-02T08:55:58.365Z,2.80
2023-04-02T08:59:57.295Z,2.50
2023-04-02T09:03:54.956Z,2.30
2023-04-02T09:07:51.580Z,2.60
2023-04-02T09:11:52.950Z,2.80
2023-04-02T09:15:55.611Z,2.60
2023-04-02T09:19:55.203Z,2.40
2023-04-02T09:23:50.292Z,2.30
2023-04-02T09:27:53.661Z,2.80
2023-04-02T09:32:00.854Z,3.10
2023-04-02T09:35:56.442Z,2.60
2023-04-02T09:39:50.763Z,2.60
2023-04-02T09:44:10.053Z,2.40
2023-04-02T09:47:52.972Z,2.50
2023-04-02T09:52:06.016Z,2.50
2023-04-02T09:56:08.614Z,2.40
2023-04-02T10:00:21.800Z,2.80
2023-04-02T10:07:52.204Z,2.70
2023-04-02T10:11:52.877Z,2.30
2023-04-02T10:15:56.690Z,2.40
2023-04-02T10:19:54.396Z,2.70
2023-04-02T10:28:00.066Z,2.50
2023-04-02T10:31:58.793Z,2.30
2023-04-02T10:35:56.387Z,2.30
2023-04-02T10:39:57.517Z,2.60
2023-04-02T10:44:16.633Z,2.50
2023-04-02T10:47:57.610Z,2.60
2023-04-02T10:51:57.605Z,2.70
2023-04-02T10:55:53.135Z,2.30
2023-04-02T10:59:55.383Z,2.80
2023-04-02T11:03:58.343Z,2.70
2023-04-02T11:07:55.705Z,2.40
2023-04-02T11:11:53.835Z,2.70
2023-04-02T11:15:51.487Z,2.50
2023-04-02T11:19:51.520Z,2.10
2023-04-02T11:23:55.947Z,2.20
2023-04-02T11:27:51.000Z,2.50
2023-04-02T11:32:10.326Z,3.00
2023-04-02T11:35:51.092Z,2.80
2023-04-02T11:39:54.200Z,2.30
2023-04-02T11:43:58.763Z,2.20
2023-04-02T11:48:10.343Z,2.60
2023-04-02T11:51:54.193Z,2.50
2023-04-02T11:56:09.377Z,3.20
2023-04-02T12:00:06.913Z,2.40
2023-04-02T12:04:07.889Z,2.50
2023-04-02T12:11:53.710Z,2.40
2023-04-02T12:15:51.437Z,2.40
2023-04-02T12:26:36.075Z,2.10
2023-04-02T12:34:45.325Z,2.80
2023-04-02T12:38:28.369Z,2.80
2023-04-02T12:42:28.441Z,2.30
2023-04-02T12:46:27.330Z,2.30
2023-04-02T12:50:26.919Z,2.80
2023-04-02T12:54:27.334Z,2.20
2023-04-02T12:58:29.119Z,2.20
2023-04-02T13:06:29.476Z,3.00
2023-04-02T13:10:27.314Z,2.70
2023-04-02T13:14:28.144Z,2.40
2023-04-02T13:18:26.775Z,2.60
2023-04-02T13:22:28.714Z,2.40
2023-04-02T13:26:28.003Z,2.70
2023-04-02T13:30:27.979Z,2.50
2023-04-02T13:34:27.354Z,2.50
2023-04-02T13:38:26.636Z,2.30
2023-04-02T13:42:26.748Z,2.20
2023-04-02T13:46:28.987Z,2.50
2023-04-02T13:50:28.647Z,2.30
2023-04-02T13:54:32.704Z,2.70
2023-04-02T13:58:26.903Z,2.30
2023-04-02T14:02:28.179Z,2.30
2023-04-02T14:06:45.119Z,2.70
2023-04-02T14:10:38.752Z,2.40
2023-04-02T14:14:45.588Z,2.80
2023-04-02T14:18:43.655Z,2.30
2023-04-02T14:22:40.643Z,2.20
2023-04-02T14:26:38.509Z,2.10
2023-04-02T14:30:39.193Z,2.70
2023-04-02T14:34:35.082Z,2.70
2023-04-02T14:38:33.645Z,2.50
2023-04-02T14:42:32.092Z,2.30
2023-04-02T14:46:29.985Z,2.30
2023-04-02T14:50:32.315Z,2.40
2023-04-02T14:54:32.738Z,2.50
2023-04-02T14:58:32.140Z,2.30
2023-04-02T15:02:37.323Z,2.40
2023-04-02T15:06:33.162Z,2.50
2023-04-02T15:10:29.900Z,2.70
2023-04-02T15:14:33.014Z,2.50
2023-04-02T15:18:27.138Z,2.40
2023-04-02T15:22:34.818Z,2.10
2023-04-02T15:26:34.792Z,2.20
2023-04-02T15:30:29.679Z,2.40
2023-04-02T15:34:31.634Z,2.40
2023-04-02T15:38:34.882Z,2.20
2023-04-02T15:42:29.554Z,2.30
2023-04-02T15:46:35.499Z,2.40
2023-04-02T15:50:37.825Z,2.40
2023-04-02T15:54:41.878Z,2.10
2023-04-02T15:58:38.485Z,2.60
2023-04-02T16:02:46.888Z,2.30
2023-04-02T16:06:31.256Z,2.30
2023-04-02T16:10:41.214Z,2.20
2023-04-02T16:14:30.326Z,2.70
2023-04-02T16:18:37.386Z,2.50
2023-04-02T16:22:29.477Z,2.20
2023-04-02T16:26:35.676Z,2.10
2023-04-02T16:30:37.990Z,2.60
2023-04-02T16:34:35.667Z,2.20
2023-04-02T16:38:42.025Z,2.20
2023-04-02T16:42:37.716Z,2.00
2023-04-02T16:46:39.676Z,2.30
2023-04-02T16:50:36.181Z,2.10
2023-04-02T16:54:35.005Z,2.10
2023-04-02T16:58:42.556Z,2.10
2023-04-02T17:02:41.732Z,2.20
2023-04-02T17:06:38.509Z,2.60
2023-04-02T17:10:30.575Z,2.30
2023-04-02T17:14:33.885Z,4.70
2023-04-02T17:18:27.409Z,2.30
2023-04-02T17:22:30.712Z,2.20
2023-04-02T17:26:31.434Z,2.10
2023-04-02T17:30:36.894Z,2.30
2023-04-02T17:34:27.543Z,2.00
2023-04-02T17:38:36.510Z,2.20
2023-04-02T17:42:39.670Z,2.30
2023-04-02T17:46:35.633Z,2.50
2023-04-02T17:50:34.443Z,2.40
2023-04-02T17:54:38.412Z,2.00
2023-04-02T17:58:44.521Z,2.30
2023-04-02T18:02:38.878Z,2.60
2023-04-02T18:06:33.136Z,2.60
2023-04-02T18:10:37.371Z,2.20
2023-04-02T18:14:35.544Z,2.10
2023-04-02T18:18:39.914Z,2.10
2023-04-02T18:22:36.368Z,2.40
2023-04-02T18:26:37.317Z,2.30
2023-04-02T18:30:34.561Z,2.30
2023-04-02T18:34:36.588Z,2.20
2023-04-02T18:38:33.381Z,2.30
2023-04-02T18:42:39.831Z,2.40
2023-04-02T18:46:35.388Z,2.50
2023-04-02T18:50:30.727Z,2.50
2023-04-02T18:54:32.537Z,2.40
2023-04-02T18:58:36.835Z,2.60
2023-04-02T19:02:36.600Z,2.20
2023-04-02T19:06:35.843Z,2.20
2023-04-02T19:10:30.722Z,2.40
2023-04-02T19:14:28.962Z,2.30
2023-04-02T19:18:40.609Z,2.20
2023-04-02T19:22:37.870Z,2.50
2023-04-02T19:26:34.039Z,2.40
2023-04-02T19:30:38.162Z,2.60
2023-04-02T19:34:36.825Z,3.00
2023-04-02T19:38:45.500Z,2.80
2023-04-02T19:42:39.561Z,2.80
2023-04-02T19:46:27.810Z,2.70
2023-04-02T19:50:28.767Z,3.10
2023-04-02T19:54:27.969Z,2.90
2023-04-02T19:58:29.375Z,2.60
2023-04-02T20:02:27.767Z,2.80
2023-04-02T20:06:29.022Z,2.70
2023-04-02T20:10:27.711Z,2.70
2023-04-02T20:14:27.777Z,2.60
2023-04-02T20:18:28.819Z,2.70
2023-04-02T20:22:27.837Z,2.60
2023-04-02T20:26:28.721Z,3.00
2023-04-02T20:30:28.437Z,3.20
2023-04-02T20:34:28.047Z,2.90
2023-04-02T20:38:27.852Z,3.10
2023-04-02T20:42:28.174Z,2.90
2023-04-02T20:46:28.068Z,2.90
2023-04-02T20:50:28.513Z,2.60
2023-04-02T20:54:28.075Z,2.90
2023-04-02T20:58:27.847Z,3.20
2023-04-02T21:02:27.942Z,2.60
2023-04-02T21:06:30.542Z,2.50
2023-04-02T21:10:28.018Z,2.70
2023-04-02T21:14:30.333Z,2.70
2023-04-02T21:18:28.841Z,2.90
2023-04-02T21:22:28.086Z,2.70
2023-04-02T21:26:30.100Z,2.70
2023-04-02T21:30:28.028Z,2.90
2023-04-02T21:34:27.985Z,2.60
2023-04-02T21:38:27.997Z,2.90
2023-04-02T21:42:28.184Z,2.90
2023-04-02T21:46:30.268Z,2.70
2023-04-02T21:50:28.165Z,2.60
2023-04-02T21:54:28.703Z,2.70
2023-04-02T21:58:28.151Z,2.60
2023-04-02T22:02:28.527Z,2.50
2023-04-02T22:06:30.671Z,2.30
2023-04-02T22:10:28.047Z,2.50
2023-04-02T22:14:28.994Z,2.70
2023-04-02T22:18:29.165Z,2.70
2023-04-02T22:22:28.172Z,2.70
2023-04-02T22:26:29.311Z,2.60
2023-04-02T22:30:28.947Z,2.70
2023-04-02T22:34:28.242Z,2.40
2023-04-02T22:38:28.724Z,2.50
2023-04-02T22:42:28.226Z,2.40
2023-04-02T22:46:29.620Z,2.50
2023-04-02T22:50:28.278Z,2.30
2023-04-02T22:54:28.177Z,2.50
2023-04-02T22:58:28.863Z,2.60
2023-04-02T23:02:28.334Z,2.40
2023-04-02T23:06:28.539Z,2.70
2023-04-02T23:10:33.387Z,2.70
2023-04-02T23:14:28.304Z,2.70
2023-04-02T23:18:28.403Z,2.30
2023-04-02T23:22:28.302Z,2.70
2023-04-02T23:26:30.278Z,2.70
2023-04-02T23:30:28.324Z,2.60
2023-04-02T23:34:28.478Z,2.70
2023-04-02T23:38:28.264Z,2.40
2023-04-02T23:42:28.479Z,2.70
2023-04-02T23:46:29.550Z,2.20
2023-04-02T23:50:28.366Z,2.70
2023-04-02T23:54:28.419Z,2.50
2023-04-02T23:58:28.712Z,2.70
